Time;durP1;ratioP1;P1;durP2;ratioP2;P2;SDS_P1;SDS_P2;PMS_P1;PMS_P2;Temp;Humidity;BMP_temperature;BMP_pressure;BME280_temperature;BME280_humidity;BME280_pressure;Samples;Min_cycle;Max_cycle;Signal;HPM_P1;HPM_P2
2021/07/23 00:01:49;;;;;;;541.92;393.98;;;;;;;;;;4926955;29;20468;-81
2021/07/23 00:04:15;;;;;;;540.13;391.60;;;;;;;;;;4936299;29;20375;-81
2021/07/23 00:06:41;;;;;;;541.13;393.48;;;;;;;;;;4934753;29;20024;-82
2021/07/23 00:09:07;;;;;;;545.80;392.98;;;;;;;;;;4937754;29;20383;-81
2021/07/23 00:11:33;;;;;;;538.55;381.20;;;;;;;;;;4937818;29;20423;-81
2021/07/23 00:13:59;;;;;;;544.13;400.25;;;;;;;;;;4953128;28;20031;-82
2021/07/23 00:16:25;;;;;;;542.42;394.05;;;;;;;;;;4937266;29;20490;-81
2021/07/23 00:18:51;;;;;;;543.92;399.02;;;;;;;;;;4936837;29;20126;-80
2021/07/23 00:21:17;;;;;;;542.70;391.77;;;;;;;;;;4936120;29;20038;-81
2021/07/23 00:23:43;;;;;;;544.30;393.33;;;;;;;;;;4951264;29;20105;-82
2021/07/23 00:26:09;;;;;;;543.10;394.67;;;;;;;;;;4932189;29;20023;-82
2021/07/23 00:28:35;;;;;;;543.13;388.67;;;;;;;;;;4949389;29;20027;-82
2021/07/23 00:31:01;;;;;;;540.33;383.85;;;;;;;;;;4948406;28;20050;-81
2021/07/23 00:33:27;;;;;;;544.55;394.33;;;;;;;;;;4931819;29;20039;-81
2021/07/23 00:35:53;;;;;;;544.85;395.58;;;;;;;;;;4929072;29;20040;-81
2021/07/23 00:38:19;;;;;;;544.97;396.40;;;;;;;;;;4930398;29;20147;-81
2021/07/23 00:40:45;;;;;;;544.55;396.02;;;;;;;;;;4948321;29;20216;-81
2021/07/23 00:43:11;;;;;;;545.63;392.65;;;;;;;;;;4932656;29;20065;-82
2021/07/23 00:45:37;;;;;;;542.30;386.83;;;;;;;;;;4931024;29;20028;-82
2021/07/23 00:48:03;;;;;;;539.60;381.90;;;;;;;;;;4933021;29;20265;-82
2021/07/23 00:50:30;;;;;;;543.65;391.80;;;;;;;;;;4930086;29;20180;-81
2021/07/23 00:52:57;;;;;;;542.97;384.13;;;;;;;;;;4949031;28;20035;-81
2021/07/23 00:55:23;;;;;;;544.90;388.77;;;;;;;;;;4932502;29;20039;-82
2021/07/23 00:57:49;;;;;;;543.22;386.75;;;;;;;;;;4932346;29;20069;-81
2021/07/23 01:00:16;;;;;;;542.72;383.40;;;;;;;;;;4932078;29;20094;-81
2021/07/23 01:02:44;;;;;;;540.80;381.02;;;;;;;;;;4930601;29;20110;-81
2021/07/23 01:05:10;;;;;;;543.80;385.13;;;;;;;;;;4943500;29;20067;-82
2021/07/23 01:07:36;;;;;;;543.53;384.63;;;;;;;;;;4933289;29;20023;-81
2021/07/23 01:10:03;;;;;;;544.05;384.15;;;;;;;;;;4947858;28;20106;-80
2021/07/23 01:12:29;;;;;;;541.95;381.88;;;;;;;;;;4933195;29;20483;-81
2021/07/23 01:14:56;;;;;;;544.75;386.75;;;;;;;;;;4947699;28;20530;-81
2021/07/23 01:17:22;;;;;;;546.13;393.02;;;;;;;;;;4926245;29;20039;-82
2021/07/23 01:20:11;;;;;;;546.08;390.25;;;;;;;;;;4946464;28;20058;-82
2021/07/23 01:22:41;;;;;;;545.83;388.85;;;;;;;;;;4947739;28;20502;-82
2021/07/23 01:25:07;;;;;;;544.13;382.25;;;;;;;;;;4932735;28;20402;-81
2021/07/23 01:27:37;;;;;;;543.85;387.52;;;;;;;;;;4950991;29;20039;-83
2021/07/23 01:30:10;;;;;;;538.42;368.63;;;;;;;;;;4936493;28;20054;-82
2021/07/23 01:32:37;;;;;;;541.13;378.45;;;;;;;;;;4950836;29;20033;-81
2021/07/23 01:35:03;;;;;;;541.60;378.33;;;;;;;;;;4935636;29;20031;-81
2021/07/23 01:37:30;;;;;;;545.20;384.75;;;;;;;;;;4947146;29;20114;-81
2021/07/23 01:39:56;;;;;;;543.88;378.15;;;;;;;;;;4935773;29;20392;-81
2021/07/23 01:45:27;;;;;;;539.20;367.65;;;;;;;;;;4939449;29;20167;-81
2021/07/23 01:47:53;;;;;;;541.40;374.80;;;;;;;;;;4936503;29;20031;-81
2021/07/23 01:50:20;;;;;;;539.90;368.38;;;;;;;;;;4932550;29;20058;-81
2021/07/23 01:52:46;;;;;;;542.53;372.88;;;;;;;;;;4936160;29;20086;-81
2021/07/23 01:55:12;;;;;;;541.05;367.00;;;;;;;;;;4934693;29;20501;-81
2021/07/23 01:57:38;;;;;;;544.10;379.38;;;;;;;;;;4935677;29;20050;-81
2021/07/23 02:00:05;;;;;;;541.90;368.40;;;;;;;;;;4933624;29;20045;-80
2021/07/23 02:02:31;;;;;;;541.55;366.33;;;;;;;;;;4935387;29;20364;-81
2021/07/23 02:04:59;;;;;;;540.08;367.10;;;;;;;;;;4935263;29;20026;-81
2021/07/23 02:07:26;;;;;;;544.00;374.38;;;;;;;;;;4935332;29;20039;-81
2021/07/23 02:09:52;;;;;;;543.35;377.05;;;;;;;;;;4948273;29;20023;-81
2021/07/23 02:12:18;;;;;;;541.22;374.92;;;;;;;;;;4937083;29;20036;-81
2021/07/23 02:14:44;;;;;;;542.72;376.30;;;;;;;;;;4930444;29;20087;-82
2021/07/23 02:17:10;;;;;;;541.42;375.15;;;;;;;;;;4931032;29;20110;-83
2021/07/23 02:19:36;;;;;;;541.97;374.67;;;;;;;;;;4939003;29;20032;-80
2021/07/23 02:22:02;;;;;;;543.05;378.85;;;;;;;;;;4929824;29;20423;-81
2021/07/23 02:24:28;;;;;;;544.10;380.35;;;;;;;;;;4916744;29;20028;-81
2021/07/23 02:26:54;;;;;;;543.05;378.73;;;;;;;;;;4922102;29;20034;-81
2021/07/23 02:29:20;;;;;;;541.58;374.20;;;;;;;;;;4924895;29;20036;-81
2021/07/23 02:31:46;;;;;;;540.25;370.35;;;;;;;;;;4930295;29;20037;-80
2021/07/23 02:34:12;;;;;;;540.45;372.38;;;;;;;;;;4928146;29;20031;-81
2021/07/23 02:36:38;;;;;;;542.17;379.02;;;;;;;;;;4935639;28;20035;-81
2021/07/23 02:39:04;;;;;;;539.67;368.40;;;;;;;;;;4938992;29;20118;-80
2021/07/23 02:41:31;;;;;;;540.55;371.73;;;;;;;;;;4938610;29;20028;-81
2021/07/23 02:43:58;;;;;;;543.00;376.05;;;;;;;;;;4939502;29;20053;-81
2021/07/23 02:46:25;;;;;;;540.90;369.52;;;;;;;;;;4950907;29;20039;-81
2021/07/23 02:48:51;;;;;;;541.38;372.60;;;;;;;;;;4920515;29;20020;-81
2021/07/23 02:51:16;;;;;;;541.47;372.75;;;;;;;;;;4939372;29;20038;-81
2021/07/23 02:53:42;;;;;;;540.25;369.98;;;;;;;;;;4939391;29;20071;-81
2021/07/23 02:56:09;;;;;;;541.97;370.02;;;;;;;;;;4951383;29;20031;-81
2021/07/23 02:58:53;;;;;;;541.00;369.20;;;;;;;;;;4920550;29;20087;-81
2021/07/23 03:01:19;;;;;;;543.28;371.25;;;;;;;;;;4922775;29;20074;-82
2021/07/23 03:03:45;;;;;;;542.15;367.88;;;;;;;;;;4939270;29;20118;-80
2021/07/23 03:06:11;;;;;;;545.80;376.40;;;;;;;;;;4938692;29;20027;-81
2021/07/23 03:08:37;;;;;;;541.70;367.50;;;;;;;;;;4938731;29;20059;-80
2021/07/23 03:11:03;;;;;;;540.35;361.45;;;;;;;;;;4939227;29;20460;-81
2021/07/23 03:13:30;;;;;;;540.65;367.40;;;;;;;;;;4938779;29;20106;-81
2021/07/23 03:15:56;;;;;;;540.20;367.40;;;;;;;;;;4938793;29;20023;-81
2021/07/23 03:18:22;;;;;;;544.33;375.33;;;;;;;;;;4954987;29;20030;-86
2021/07/23 03:20:47;;;;;;;545.17;379.38;;;;;;;;;;4933125;29;20378;-81
2021/07/23 03:23:13;;;;;;;538.92;364.88;;;;;;;;;;4938782;29;20034;-81
2021/07/23 03:25:39;;;;;;;542.67;377.65;;;;;;;;;;4938816;29;20023;-82
2021/07/23 03:28:06;;;;;;;542.72;379.70;;;;;;;;;;4955707;29;20237;-82
2021/07/23 03:30:33;;;;;;;543.65;381.75;;;;;;;;;;4938496;29;20102;-81
2021/07/23 03:33:00;;;;;;;544.08;384.88;;;;;;;;;;4946157;29;20115;-81
2021/07/23 03:35:26;;;;;;;540.85;377.17;;;;;;;;;;4938308;29;20042;-81
2021/07/23 03:37:52;;;;;;;540.63;378.00;;;;;;;;;;4944252;28;20480;-81
2021/07/23 03:40:18;;;;;;;544.45;388.60;;;;;;;;;;4936529;29;20038;-81
2021/07/23 03:42:44;;;;;;;542.08;382.27;;;;;;;;;;4936831;29;20471;-80
2021/07/23 03:45:10;;;;;;;541.83;382.60;;;;;;;;;;4938029;29;20043;-81
2021/07/23 03:47:36;;;;;;;543.13;384.80;;;;;;;;;;4931667;29;20050;-81
2021/07/23 03:50:02;;;;;;;545.97;394.63;;;;;;;;;;4936295;29;20460;-82
2021/07/23 03:52:28;;;;;;;542.83;386.70;;;;;;;;;;4938064;29;20026;-81
2021/07/23 03:54:54;;;;;;;545.92;393.65;;;;;;;;;;4955545;29;20047;-82
2021/07/23 03:57:20;;;;;;;541.85;384.90;;;;;;;;;;4934558;29;20023;-82
2021/07/23 03:59:46;;;;;;;542.97;388.05;;;;;;;;;;4919199;29;20034;-82
2021/07/23 04:02:12;;;;;;;544.22;396.30;;;;;;;;;;4935500;29;20031;-81
2021/07/23 04:04:38;;;;;;;545.40;394.80;;;;;;;;;;4941096;29;20079;-82
2021/07/23 04:07:13;;;;;;;548.45;405.10;;;;;;;;;;4931500;29;20171;-83
2021/07/23 04:09:39;;;;;;;544.92;391.60;;;;;;;;;;4920393;29;20740;-83
2021/07/23 04:12:05;;;;;;;542.92;389.33;;;;;;;;;;4919387;29;20035;-83
2021/07/23 04:14:31;;;;;;;544.67;394.95;;;;;;;;;;4943028;29;20039;-83
2021/07/23 04:16:57;;;;;;;543.10;392.83;;;;;;;;;;4947947;29;20034;-82
2021/07/23 04:19:23;;;;;;;547.08;398.40;;;;;;;;;;4936291;29;20027;-83
2021/07/23 04:21:49;;;;;;;544.60;398.88;;;;;;;;;;4930426;29;20039;-83
2021/07/23 04:24:15;;;;;;;543.47;397.98;;;;;;;;;;4934271;29;20027;-81
2021/07/23 04:26:41;;;;;;;544.28;398.65;;;;;;;;;;4937192;29;20082;-81
2021/07/23 04:29:07;;;;;;;546.50;409.85;;;;;;;;;;4950145;29;20053;-82
2021/07/23 04:31:33;;;;;;;545.38;404.17;;;;;;;;;;4937646;29;20034;-81
2021/07/23 04:33:59;;;;;;;544.05;401.05;;;;;;;;;;4937327;29;20035;-81
2021/07/23 04:36:26;;;;;;;544.60;406.33;;;;;;;;;;4951741;29;20027;-81
2021/07/23 04:38:52;;;;;;;540.70;392.92;;;;;;;;;;4954501;29;20031;-81
2021/07/23 04:41:18;;;;;;;547.75;402.67;;;;;;;;;;4935744;29;20055;-81
2021/07/23 04:43:44;;;;;;;543.05;399.48;;;;;;;;;;4953812;29;20035;-81
2021/07/23 04:46:10;;;;;;;543.63;401.80;;;;;;;;;;4937398;29;20431;-82
2021/07/23 04:48:36;;;;;;;543.97;405.15;;;;;;;;;;4926648;29;20028;-82
2021/07/23 04:51:02;;;;;;;541.78;398.17;;;;;;;;;;4927542;29;20027;-81
2021/07/23 04:53:28;;;;;;;543.92;409.08;;;;;;;;;;4929923;29;20547;-80
2021/07/23 04:55:58;;;;;;;542.15;401.88;;;;;;;;;;4937103;29;20150;-81
2021/07/23 04:58:24;;;;;;;543.08;403.67;;;;;;;;;;4954328;29;20031;-81
2021/07/23 05:00:52;;;;;;;545.15;409.98;;;;;;;;;;4936547;29;20032;-80
2021/07/23 05:03:18;;;;;;;544.22;412.10;;;;;;;;;;4934173;29;20114;-81
2021/07/23 05:05:46;;;;;;;539.25;399.98;;;;;;;;;;4918298;29;20472;-80
2021/07/23 05:08:12;;;;;;;540.65;403.35;;;;;;;;;;4936991;29;20071;-80
2021/07/23 05:10:43;;;;;;;541.30;405.35;;;;;;;;;;4937169;29;20027;-81
2021/07/23 05:13:09;;;;;;;541.25;405.27;;;;;;;;;;4948788;29;20074;-81
2021/07/23 05:15:37;;;;;;;537.50;398.23;;;;;;;;;;4931905;29;20078;-81
2021/07/23 05:18:03;;;;;;;540.08;408.15;;;;;;;;;;4932137;29;20036;-81
2021/07/23 05:20:29;;;;;;;542.58;415.15;;;;;;;;;;4935324;29;20580;-80
2021/07/23 05:22:55;;;;;;;540.50;409.40;;;;;;;;;;4934508;29;20023;-81
2021/07/23 05:25:21;;;;;;;542.15;411.48;;;;;;;;;;4951061;29;20505;-81
2021/07/23 05:27:47;;;;;;;542.33;414.27;;;;;;;;;;4936395;29;20024;-81
2021/07/23 05:30:13;;;;;;;541.58;411.70;;;;;;;;;;4921756;29;20062;-81
2021/07/23 05:32:39;;;;;;;542.88;415.80;;;;;;;;;;4924093;29;20024;-81
2021/07/23 05:35:05;;;;;;;544.30;419.90;;;;;;;;;;4926467;29;20023;-81
2021/07/23 05:37:35;;;;;;;543.75;418.52;;;;;;;;;;4933173;29;20031;-81
2021/07/23 05:40:01;;;;;;;541.92;413.45;;;;;;;;;;4935994;29;20028;-81
2021/07/23 05:42:26;;;;;;;543.65;420.77;;;;;;;;;;4935641;29;20034;-80
2021/07/23 05:44:52;;;;;;;542.53;418.00;;;;;;;;;;4934965;29;20145;-80
2021/07/23 05:47:19;;;;;;;544.70;423.85;;;;;;;;;;4936133;29;20075;-81
2021/07/23 05:49:45;;;;;;;544.40;421.55;;;;;;;;;;4949805;29;20480;-81
2021/07/23 05:52:11;;;;;;;544.65;425.70;;;;;;;;;;4931904;29;20360;-80
2021/07/23 05:54:37;;;;;;;544.80;427.40;;;;;;;;;;4929332;29;20059;-81
2021/07/23 05:57:03;;;;;;;543.72;423.27;;;;;;;;;;4919983;29;20023;-79
2021/07/23 05:59:30;;;;;;;543.60;424.13;;;;;;;;;;4936133;29;20090;-81
2021/07/23 06:01:56;;;;;;;546.10;426.88;;;;;;;;;;4953175;29;20031;-80
2021/07/23 06:04:22;;;;;;;542.85;421.63;;;;;;;;;;4952173;29;20023;-80
2021/07/23 06:06:47;;;;;;;542.75;420.42;;;;;;;;;;4936403;29;20020;-81
2021/07/23 06:09:15;;;;;;;542.03;418.88;;;;;;;;;;4951177;29;20035;-81
2021/07/23 06:11:41;;;;;;;546.90;435.20;;;;;;;;;;4935835;28;20027;-81
2021/07/23 06:14:07;;;;;;;544.03;427.25;;;;;;;;;;4946840;29;20042;-81
2021/07/23 06:16:33;;;;;;;543.38;424.92;;;;;;;;;;4955257;29;20062;-81
2021/07/23 06:19:02;;;;;;;544.10;427.40;;;;;;;;;;4938205;29;20051;-81
2021/07/23 06:21:28;;;;;;;544.50;428.08;;;;;;;;;;4953963;29;20116;-81
2021/07/23 06:23:54;;;;;;;545.00;427.95;;;;;;;;;;4939956;29;20023;-81
2021/07/23 06:26:20;;;;;;;542.50;422.20;;;;;;;;;;4939551;29;20039;-81
2021/07/23 06:28:47;;;;;;;546.17;434.42;;;;;;;;;;4939241;29;20471;-80
2021/07/23 06:31:14;;;;;;;543.80;426.15;;;;;;;;;;4938320;29;20089;-81
2021/07/23 06:33:41;;;;;;;543.47;426.00;;;;;;;;;;4939520;29;20031;-81
2021/07/23 06:36:07;;;;;;;548.75;440.67;;;;;;;;;;4929691;29;20042;-81
2021/07/23 06:38:33;;;;;;;546.83;435.00;;;;;;;;;;4940649;29;20032;-81
2021/07/23 06:40:59;;;;;;;546.45;435.50;;;;;;;;;;4937769;29;20058;-81
2021/07/23 06:43:26;;;;;;;548.35;441.02;;;;;;;;;;4939127;29;20035;-81
2021/07/23 06:45:56;;;;;;;549.60;443.23;;;;;;;;;;4950104;29;20462;-81
2021/07/23 06:48:23;;;;;;;553.42;436.17;;;;;;;;;;4926275;29;20101;-81
2021/07/23 06:50:49;;;;;;;550.30;443.15;;;;;;;;;;4939334;29;20028;-81
2021/07/23 06:53:16;;;;;;;548.88;442.33;;;;;;;;;;4938125;29;20566;-81
2021/07/23 06:55:42;;;;;;;552.45;449.17;;;;;;;;;;4927000;29;20051;-81
2021/07/23 06:58:08;;;;;;;553.08;452.00;;;;;;;;;;4941716;28;20036;-81
2021/07/23 07:00:34;;;;;;;552.70;452.52;;;;;;;;;;4936790;29;20046;-81
2021/07/23 07:03:01;;;;;;;550.72;448.38;;;;;;;;;;4953996;29;20039;-81
2021/07/23 07:05:27;;;;;;;554.45;447.13;;;;;;;;;;4954324;29;20719;-82
2021/07/23 07:07:53;;;;;;;551.00;450.02;;;;;;;;;;4935641;29;20047;-82
2021/07/23 07:10:18;;;;;;;551.58;451.52;;;;;;;;;;4948688;29;20050;-81
2021/07/23 07:12:44;;;;;;;552.83;456.15;;;;;;;;;;4934311;29;20092;-82
2021/07/23 07:15:12;;;;;;;550.60;450.05;;;;;;;;;;4925833;29;20027;-81
2021/07/23 07:17:38;;;;;;;550.78;454.80;;;;;;;;;;4933761;29;20497;-81
2021/07/23 07:20:04;;;;;;;548.75;451.02;;;;;;;;;;4950674;29;20027;-81
2021/07/23 07:22:30;;;;;;;551.35;459.17;;;;;;;;;;4920777;29;20028;-81
2021/07/23 07:24:56;;;;;;;553.00;462.15;;;;;;;;;;4919992;29;20502;-81
2021/07/23 07:27:22;;;;;;;549.30;454.10;;;;;;;;;;4920024;29;20031;-81
2021/07/23 07:29:48;;;;;;;548.10;454.00;;;;;;;;;;4936377;29;20545;-81
2021/07/23 07:32:14;;;;;;;552.00;462.00;;;;;;;;;;4938826;29;20035;-81
2021/07/23 07:34:40;;;;;;;549.22;456.98;;;;;;;;;;4956090;29;20444;-80
2021/07/23 07:37:06;;;;;;;550.70;462.42;;;;;;;;;;4938431;29;20031;-80
2021/07/23 07:39:33;;;;;;;557.05;465.02;;;;;;;;;;4954714;29;20127;-80
2021/07/23 07:42:01;;;;;;;551.17;459.75;;;;;;;;;;4946027;29;20039;-79
2021/07/23 07:44:26;;;;;;;546.83;452.45;;;;;;;;;;4934508;29;20019;-81
2021/07/23 07:46:52;;;;;;;551.40;460.75;;;;;;;;;;4938370;29;20106;-80
2021/07/23 07:49:21;;;;;;;550.00;459.10;;;;;;;;;;4934917;29;20122;-81
2021/07/23 07:51:47;;;;;;;552.30;463.20;;;;;;;;;;4938562;29;20064;-81
2021/07/23 07:54:13;;;;;;;554.95;467.33;;;;;;;;;;4948349;29;20479;-81
2021/07/23 07:56:39;;;;;;;558.55;474.98;;;;;;;;;;4954411;29;20031;-81
2021/07/23 07:59:07;;;;;;;554.03;470.38;;;;;;;;;;4935832;29;20122;-80
2021/07/23 08:01:33;;;;;;;551.47;464.83;;;;;;;;;;4935574;29;20391;-77
2021/07/23 08:03:59;;;;;;;552.90;468.10;;;;;;;;;;4942008;29;20027;-79
2021/07/23 08:06:29;;;;;;;552.50;469.13;;;;;;;;;;4937529;29;20035;-76
2021/07/23 08:09:00;;;;;;;551.47;460.20;;;;;;;;;;4936872;29;20122;-76
2021/07/23 08:11:26;;;;;;;552.47;463.08;;;;;;;;;;4927931;29;20067;-78
2021/07/23 08:13:52;;;;;;;552.65;462.10;;;;;;;;;;4932130;29;20435;-78
2021/07/23 08:16:18;;;;;;;554.75;466.42;;;;;;;;;;4936710;29;20030;-74
2021/07/23 08:18:45;;;;;;;554.88;468.30;;;;;;;;;;4937417;29;20074;-80
2021/07/23 08:21:11;;;;;;;553.95;470.15;;;;;;;;;;4953673;29;20384;-80
2021/07/23 08:23:37;;;;;;;554.00;469.75;;;;;;;;;;4935954;29;20090;-78
2021/07/23 08:26:04;;;;;;;555.70;475.50;;;;;;;;;;4929586;29;20024;-77
2021/07/23 08:28:30;;;;;;;553.72;471.23;;;;;;;;;;4931594;29;20054;-76
2021/07/23 08:30:57;;;;;;;554.22;469.70;;;;;;;;;;4931976;29;20031;-79
2021/07/23 08:33:23;;;;;;;554.13;472.10;;;;;;;;;;4931657;29;20608;-76
2021/07/23 08:35:49;;;;;;;554.05;471.35;;;;;;;;;;4934053;28;20027;-74
2021/07/23 08:38:16;;;;;;;556.03;468.38;;;;;;;;;;4922098;29;20491;-79
2021/07/23 08:40:42;;;;;;;551.55;466.42;;;;;;;;;;4927290;29;20107;-78
2021/07/23 08:43:08;;;;;;;552.00;466.95;;;;;;;;;;4925050;29;20046;-75
2021/07/23 08:45:35;;;;;;;551.55;466.90;;;;;;;;;;4927012;29;20031;-81
2021/07/23 08:48:01;;;;;;;555.65;478.95;;;;;;;;;;4941662;29;20031;-79
2021/07/23 08:50:27;;;;;;;555.40;480.33;;;;;;;;;;4929148;29;20479;-82
2021/07/23 08:52:56;;;;;;;553.75;476.98;;;;;;;;;;4947251;29;20039;-75
2021/07/23 08:55:23;;;;;;;556.20;476.73;;;;;;;;;;4926887;29;20492;-82
2021/07/23 08:57:49;;;;;;;553.85;472.92;;;;;;;;;;4930545;29;20069;-79
2021/07/23 09:00:16;;;;;;;554.00;475.33;;;;;;;;;;4944874;29;20431;-79
2021/07/23 09:02:55;;;;;;;551.22;473.90;;;;;;;;;;4936478;29;20791;-80
2021/07/23 09:05:22;;;;;;;552.60;475.07;;;;;;;;;;4925984;29;20086;-78
2021/07/23 09:07:48;;;;;;;554.80;481.67;;;;;;;;;;4944173;29;20375;-80
2021/07/23 09:10:21;;;;;;;552.30;478.60;;;;;;;;;;4934275;29;20094;-78
2021/07/23 09:12:50;;;;;;;553.50;475.33;;;;;;;;;;4953010;29;20240;-82
2021/07/23 09:15:17;;;;;;;553.88;476.15;;;;;;;;;;4954261;29;20024;-82
2021/07/23 09:17:43;;;;;;;555.20;482.15;;;;;;;;;;4936203;29;20031;-81
2021/07/23 09:20:09;;;;;;;553.45;477.02;;;;;;;;;;4951226;29;20035;-76
2021/07/23 09:22:46;;;;;;;553.80;480.25;;;;;;;;;;4936962;29;20047;-81
2021/07/23 09:25:13;;;;;;;555.22;481.08;;;;;;;;;;4935023;29;20027;-81
2021/07/23 09:27:39;;;;;;;555.10;485.55;;;;;;;;;;4954152;29;20024;-79
2021/07/23 09:30:10;;;;;;;553.25;480.55;;;;;;;;;;4936642;29;20123;-82
2021/07/23 09:32:37;;;;;;;557.72;485.90;;;;;;;;;;4936565;29;20038;-77
2021/07/23 09:35:10;;;;;;;555.83;485.20;;;;;;;;;;4936656;29;20035;-74
2021/07/23 09:37:55;;;;;;;552.42;473.80;;;;;;;;;;4935787;29;20027;-77
2021/07/23 09:40:21;;;;;;;551.33;471.70;;;;;;;;;;4926065;29;20059;-75
2021/07/23 09:42:57;;;;;;;554.58;477.77;;;;;;;;;;4935094;29;20169;-78
2021/07/23 09:45:30;;;;;;;553.22;475.58;;;;;;;;;;4936534;29;20033;-81
2021/07/23 09:48:22;;;;;;;552.17;471.70;;;;;;;;;;4953636;28;20062;-76
2021/07/23 09:50:48;;;;;;;553.60;476.05;;;;;;;;;;4933105;29;20044;-78
2021/07/23 09:53:19;;;;;;;552.85;471.13;;;;;;;;;;4938001;29;20116;-81
2021/07/23 09:55:47;;;;;;;551.75;471.27;;;;;;;;;;4921356;29;20035;-81
2021/07/23 09:58:19;;;;;;;553.45;475.10;;;;;;;;;;4937013;29;20031;-80
2021/07/23 10:00:49;;;;;;;553.95;476.70;;;;;;;;;;4926491;29;20040;-77
2021/07/23 10:03:15;;;;;;;;;;;;;;;;;;4929796;29;20609;-82
2021/07/23 10:05:47;;;;;;;550.00;458.35;;;;;;;;;;4947194;28;19914;-77
2021/07/23 10:08:19;;;;;;;553.45;473.20;;;;;;;;;;4930578;29;20055;-79
2021/07/23 10:10:47;;;;;;;556.33;480.00;;;;;;;;;;4932173;29;20042;-79
2021/07/23 10:13:13;;;;;;;555.63;481.25;;;;;;;;;;4956290;29;20069;-82
2021/07/23 10:15:40;;;;;;;556.28;486.02;;;;;;;;;;4939891;29;20471;-82
2021/07/23 10:18:06;;;;;;;554.92;478.13;;;;;;;;;;4936857;29;20043;-83
2021/07/23 10:20:33;;;;;;;551.95;474.50;;;;;;;;;;4938343;29;20039;-77
2021/07/23 10:22:59;;;;;;;552.97;477.48;;;;;;;;;;4955634;29;20067;-79
2021/07/23 10:28:42;;;;;;;551.97;470.52;;;;;;;;;;4957125;29;20077;-77
2021/07/23 10:31:17;;;;;;;554.30;475.60;;;;;;;;;;4956610;29;20038;-76
2021/07/23 10:33:50;;;;;;;553.85;477.73;;;;;;;;;;4955696;29;20365;-83
2021/07/23 10:36:31;;;;;;;559.15;482.15;;;;;;;;;;4940122;29;20038;-75
2021/07/23 10:39:06;;;;;;;553.80;477.95;;;;;;;;;;4929162;29;20026;-82
2021/07/23 10:41:33;;;;;;;555.53;479.55;;;;;;;;;;4956538;29;20038;-81
2021/07/23 10:43:59;;;;;;;557.08;482.55;;;;;;;;;;4939270;29;20035;-78
2021/07/23 10:46:57;;;;;;;556.60;485.77;;;;;;;;;;4964866;28;20034;-82
2021/07/23 10:49:33;;;;;;;555.00;482.20;;;;;;;;;;4909127;29;20038;-83
2021/07/23 10:51:59;;;;;;;557.30;490.25;;;;;;;;;;4937123;29;20035;-78
2021/07/23 10:54:29;;;;;;;557.58;488.98;;;;;;;;;;4939018;29;20106;-76
2021/07/23 10:57:01;;;;;;;556.13;484.38;;;;;;;;;;4935334;29;20028;-83
2021/07/23 10:59:40;;;;;;;558.03;488.90;;;;;;;;;;4926012;29;20035;-82
2021/07/23 11:02:29;;;;;;;558.70;489.58;;;;;;;;;;4933300;29;20491;-81
2021/07/23 11:05:16;;;;;;;583.20;489.35;;;;;;;;;;4942444;29;20124;-85
2021/07/23 11:07:43;;;;;;;559.53;494.08;;;;;;;;;;4935817;29;20024;-85
2021/07/23 11:10:13;;;;;;;557.60;494.65;;;;;;;;;;4952431;29;20476;-77
2021/07/23 11:12:47;;;;;;;560.15;493.27;;;;;;;;;;4955158;29;20131;-81
2021/07/23 11:15:13;;;;;;;560.17;497.67;;;;;;;;;;4954041;29;20038;-77
2021/07/23 11:17:49;;;;;;;561.08;497.77;;;;;;;;;;4938717;29;20030;-75
2021/07/23 11:20:16;;;;;;;558.47;491.88;;;;;;;;;;4931724;29;20142;-82
2021/07/23 11:22:50;;;;;;;568.28;505.83;;;;;;;;;;4926674;29;20034;-77
2021/07/23 11:25:16;;;;;;;560.40;496.10;;;;;;;;;;4931243;29;20027;-78
2021/07/23 11:27:51;;;;;;;558.97;496.00;;;;;;;;;;4941069;29;20396;-82
2021/07/23 11:30:17;;;;;;;560.60;496.48;;;;;;;;;;4942473;29;20020;-79
2021/07/23 11:32:53;;;;;;;557.22;494.23;;;;;;;;;;4954352;29;20491;-81
2021/07/23 11:35:20;;;;;;;563.20;500.58;;;;;;;;;;4954128;29;20019;-85
2021/07/23 11:37:47;;;;;;;574.55;511.40;;;;;;;;;;4935806;29;20086;-83
2021/07/23 11:40:15;;;;;;;570.70;508.38;;;;;;;;;;4938875;29;20023;-83
2021/07/23 11:42:51;;;;;;;586.35;523.42;;;;;;;;;;4951604;29;20480;-85
2021/07/23 11:45:21;;;;;;;590.78;527.85;;;;;;;;;;4954983;29;20051;-81
2021/07/23 11:47:56;;;;;;;595.20;532.13;;;;;;;;;;4953976;29;20023;-82
2021/07/23 11:50:24;;;;;;;602.92;539.70;;;;;;;;;;4945240;29;20038;-85
2021/07/23 11:52:59;;;;;;;600.58;537.22;;;;;;;;;;4935484;29;20383;-79
2021/07/23 11:55:25;;;;;;;604.17;540.70;;;;;;;;;;4933405;29;20055;-82
2021/07/23 11:57:51;;;;;;;595.80;532.65;;;;;;;;;;4937605;29;20031;-87
2021/07/23 12:00:21;;;;;;;603.65;540.22;;;;;;;;;;4931072;29;20035;-79
2021/07/23 12:02:47;;;;;;;598.38;534.90;;;;;;;;;;4944913;29;20034;-83
2021/07/23 12:05:14;;;;;;;594.13;530.92;;;;;;;;;;4954344;29;20037;-78
2021/07/23 12:07:41;;;;;;;590.75;527.45;;;;;;;;;;4937263;29;20035;-84
2021/07/23 12:10:08;;;;;;;582.53;519.55;;;;;;;;;;4933225;29;20055;-77
2021/07/23 12:12:35;;;;;;;590.05;526.15;;;;;;;;;;4929386;29;20526;-79
2021/07/23 12:15:08;;;;;;;586.53;523.45;;;;;;;;;;4914991;29;20083;-84
2021/07/23 12:17:35;;;;;;;602.13;538.58;;;;;;;;;;4930837;29;20087;-81
2021/07/23 12:20:02;;;;;;;600.90;537.40;;;;;;;;;;4928521;29;20514;-82
2021/07/23 12:22:28;;;;;;;593.63;530.38;;;;;;;;;;4929832;29;20065;-83
2021/07/23 12:24:54;;;;;;;600.75;537.25;;;;;;;;;;4930281;29;20055;-79
2021/07/23 12:27:23;;;;;;;596.78;533.45;;;;;;;;;;4930634;29;20024;-76
2021/07/23 12:29:50;;;;;;;582.80;519.65;;;;;;;;;;4936115;29;20058;-77
2021/07/23 12:32:22;;;;;;;577.65;514.80;;;;;;;;;;4949505;29;20030;-77
2021/07/23 12:34:55;;;;;;;576.00;513.22;;;;;;;;;;4949384;29;20443;-85
2021/07/23 12:37:21;;;;;;;580.45;517.53;;;;;;;;;;4949540;29;20035;-83
2021/07/23 12:39:50;;;;;;;584.47;521.35;;;;;;;;;;4933730;29;20027;-81
2021/07/23 12:42:20;;;;;;;578.92;516.03;;;;;;;;;;4948959;29;20031;-80
2021/07/23 12:44:47;;;;;;;579.97;516.63;;;;;;;;;;4944631;29;20110;-83
2021/07/23 12:47:21;;;;;;;581.50;518.53;;;;;;;;;;4921403;29;20063;-83
2021/07/23 12:49:48;;;;;;;575.40;512.65;;;;;;;;;;4929455;29;20393;-86
2021/07/23 12:52:14;;;;;;;582.95;520.08;;;;;;;;;;4931727;29;20493;-78
2021/07/23 12:54:44;;;;;;;580.55;517.70;;;;;;;;;;4949251;29;20422;-77
2021/07/23 12:57:13;;;;;;;583.58;520.83;;;;;;;;;;4950591;29;20337;-79
2021/07/23 12:59:39;;;;;;;588.47;525.47;;;;;;;;;;4950681;29;20094;-78
2021/07/23 13:02:05;;;;;;;592.05;529.20;;;;;;;;;;4950345;29;20036;-78
2021/07/23 13:04:31;;;;;;;575.72;513.35;;;;;;;;;;4934297;29;20508;-86
2021/07/23 13:06:56;;;;;;;579.58;517.13;;;;;;;;;;4914000;29;20055;-79
2021/07/23 13:09:22;;;;;;;580.95;518.20;;;;;;;;;;4930890;29;20098;-82
2021/07/23 13:11:52;;;;;;;575.55;513.10;;;;;;;;;;4913950;29;20224;-78
2021/07/23 13:14:18;;;;;;;572.53;510.07;;;;;;;;;;4925927;29;20023;-80
2021/07/23 13:16:44;;;;;;;568.30;506.02;;;;;;;;;;4949393;29;20333;-82
2021/07/23 13:19:10;;;;;;;582.05;519.42;;;;;;;;;;4948765;29;20061;-79
2021/07/23 13:21:38;;;;;;;580.75;517.83;;;;;;;;;;4947163;28;20059;-79
2021/07/23 13:24:04;;;;;;;588.83;526.13;;;;;;;;;;4952939;29;20122;-83
2021/07/23 13:26:30;;;;;;;586.53;523.75;;;;;;;;;;4952615;29;20027;-77
2021/07/23 13:28:57;;;;;;;590.28;527.55;;;;;;;;;;4952946;29;20027;-78
2021/07/23 13:31:24;;;;;;;592.45;529.75;;;;;;;;;;4953986;29;20031;-79
2021/07/23 13:33:51;;;;;;;586.38;523.65;;;;;;;;;;4953028;29;20553;-79
2021/07/23 13:36:40;;;;;;;581.80;519.30;;;;;;;;;;4936769;29;20505;-77
2021/07/23 13:39:08;;;;;;;569.17;506.90;;;;;;;;;;4927687;29;20040;-80
2021/07/23 13:41:38;;;;;;;590.75;528.22;;;;;;;;;;4933670;29;20062;-77
2021/07/23 13:44:04;;;;;;;;;;;;;;;;;;4933896;29;20039;-81
2021/07/23 13:46:30;;;;;;;586.88;524.25;;;;;;;;;;4933859;29;19997;-85
2021/07/23 13:48:56;;;;;;;609.05;546.00;;;;;;;;;;4933029;29;20051;-81
2021/07/23 13:51:22;;;;;;;615.25;552.13;;;;;;;;;;4931156;29;20033;-85
2021/07/23 13:53:48;;;;;;;616.55;553.50;;;;;;;;;;4923237;29;20166;-86
2021/07/23 13:56:16;;;;;;;619.33;556.20;;;;;;;;;;4951359;29;20078;-83
2021/07/23 13:58:42;;;;;;;615.92;553.03;;;;;;;;;;4952641;29;20031;-85
2021/07/23 14:01:08;;;;;;;621.25;558.22;;;;;;;;;;4952352;29;20467;-79
2021/07/23 14:03:34;;;;;;;618.05;555.10;;;;;;;;;;4952113;29;20020;-85